Maersk Denver — WMDQ — position and weather

sailwx.info

Track history (hours):
 
Tides and Currents Weather Stations Pressure Air Temp Water Temp Dewpoint Dewpoint Depression Visibility Wind Speed Wind Dir Waves Ship Positions

Maersk Denver

Owner: MAERSK LINE, LIMITED, NORFOLK, VA. More information available from US FCC via Universal Licensing System and Coast Guard Vessel Documentation Center.

Last reported at 2018-Feb-20 23:26 UTC. Time now 2018-Feb-20 23:55 UTC.
Position N 36°08' W 005°26'.

Length 299 m; draft 13.8 m.

Type: Cargo ship. MMSI: 338418000.

Date/timePositionNaut miles runAvg speedWind from/ knotsBaromVisibWave heightAir tempDewpointWater temp
2018-Feb-20 23:26N 36°08' W 005°26'0 0.0
2018-Feb-20 22:58N 36°08' W 005°26'0 0.0
2018-Feb-20 22:25N 36°08' W 005°26'0 0.0
2018-Feb-20 21:52N 36°08' W 005°26'0 0.0
2018-Feb-20 21:28N 36°08' W 005°26'0 0.0
2018-Feb-20 20:55N 36°08' W 005°26'0 0.0
2018-Feb-20 20:28N 36°08' W 005°26'0 0.0
2018-Feb-20 19:58N 36°08' W 005°26'0 0.0
2018-Feb-20 19:26N 36°08' W 005°26'0 0.0
2018-Feb-20 18:58N 36°08' W 005°26'0 0.0
2018-Feb-20 18:19N 36°08' W 005°26'0 0.0
2018-Feb-20 17:55N 36°08' W 005°26'0 0.0
2018-Feb-20 17:28N 36°08' W 005°26'0 0.0
2018-Feb-20 16:55N 36°08' W 005°26'0 0.0
2018-Feb-20 16:28N 36°08' W 005°26'0 0.0
2018-Feb-20 15:55N 36°08' W 005°26'0 0.0
2018-Feb-20 15:28N 36°08' W 005°26'0 0.0
2018-Feb-20 14:58N 36°08' W 005°26'0 0.0
2018-Feb-20 14:28N 36°08' W 005°26'0 0.0
2018-Feb-20 13:55N 36°08' W 005°26'0 0.0
2018-Feb-20 13:28N 36°08' W 005°26'0 0.0
2018-Feb-20 12:46N 36°08' W 005°26'0 0.0
2018-Feb-20 12:28N 36°08' W 005°26'1 0.9
2018-Feb-20 11:48N 36°09' W 005°26'5 7.0
2018-Feb-20 11:02N 36°04' W 005°23'311.3
2018-Feb-20 10:47N 36°01' W 005°22'3 9.9
2018-Feb-20 10:30N 35°59' W 005°23'29718.5
2018-Feb-19 18:29N 36°54' W 011°26'919.0
2018-Feb-19 18:00N 36°57' W 011°36'1918.8
2018-Feb-19 17:00N 37°03' W 011°59'918.9
2018-Feb-19 16:30N 37°06' W 012°10'1818.7
2018-Feb-19 15:31N 37°12' W 012°32'118.6
2018-Feb-19 15:29N 37°12' W 012°33'2018.7
2018-Feb-19 14:24N 37°18' W 012°57'16019.0
2018-Feb-19 06:00N 38°00' W 016°12'46619.4 050 / 161023.110.8 14.510.7
2018-Feb-18 06:00N 39°48' W 025°54'13021.2 190 / 171024.710.8 16.010.4
2018-Feb-17 23:50N 40°09' W 028°42'11619.8
2018-Feb-17 18:00N 40°24' W 031°12'25120.9 200 / 251024.910.8 19.011.8
2018-Feb-17 06:00N 40°42' W 036°42'   200 / 271023.110.8 17.013.5
2018-Feb-13 15:13N 36°49' W 075°46'3 9.3
2018-Feb-13 14:56N 36°50' W 075°49'4 9.1
2018-Feb-13 14:30N 36°52' W 075°53'5 9.1
2018-Feb-13 14:00N 36°56' W 075°57'5 9.2
2018-Feb-13 13:30N 36°57' W 076°02'611.9
2018-Feb-13 13:00N 36°59' W 076°09'611.7
2018-Feb-13 12:30N 37°00' W 076°16'5 9.7
2018-Feb-13 12:00N 36°57' W 076°20'4 7.5
2018-Feb-13 11:30N 36°53' W 076°20'1 1.5
2018-Feb-13 11:00N 36°53' W 076°21'0 0.0
2018-Feb-13 10:29N 36°53' W 076°21'0 0.0
2018-Feb-13 09:59N 36°53' W 076°21'0 0.0
2018-Feb-13 09:29N 36°53' W 076°21'0 0.0
2018-Feb-13 08:59N 36°53' W 076°21'0 0.0
2018-Feb-13 08:29N 36°53' W 076°21'0 0.0
2018-Feb-13 07:59N 36°53' W 076°21'0 0.0
2018-Feb-13 07:29N 36°53' W 076°21'0 0.0
2018-Feb-13 06:56N 36°53' W 076°21'0 0.0
2018-Feb-13 06:29N 36°53' W 076°21'0 0.0
2018-Feb-13 05:59N 36°53' W 076°21'0 0.0
2018-Feb-13 05:29N 36°53' W 076°21'0 0.0
2018-Feb-13 04:56N 36°53' W 076°21'0 0.0
2018-Feb-13 04:26N 36°53' W 076°21'0 0.0
2018-Feb-13 03:59N 36°53' W 076°21'0 0.0
2018-Feb-13 03:29N 36°53' W 076°21'0 0.0
2018-Feb-13 02:59N 36°53' W 076°21'0 0.0
2018-Feb-13 02:29N 36°53' W 076°21'0 0.0
2018-Feb-13 01:56N 36°53' W 076°21'0 0.0
2018-Feb-13 01:26N 36°53' W 076°21'0 0.0
2018-Feb-13 00:59N 36°53' W 076°21'0 0.0
2018-Feb-13 00:26N 36°53' W 076°21'0 0.0
2018-Feb-12 23:59N 36°53' W 076°21'0 0.0
2018-Feb-12 23:26N 36°53' W 076°21'0 0.0
2018-Feb-12 22:56N 36°53' W 076°21'0 0.0
2018-Feb-12 22:29N 36°53' W 076°21'0 0.0
2018-Feb-12 21:59N 36°53' W 076°21'0 0.0
2018-Feb-12 21:26N 36°53' W 076°21'0 0.0
2018-Feb-12 20:56N 36°53' W 076°21'0 0.0
2018-Feb-12 20:26N 36°53' W 076°21'0 0.0
2018-Feb-12 19:56N 36°53' W 076°21'0 0.0
2018-Feb-12 19:29N 36°53' W 076°21'0 0.0
2018-Feb-12 18:59N 36°53' W 076°21'0 0.0
2018-Feb-12 18:26N 36°53' W 076°21'0 0.0
2018-Feb-12 17:56N 36°53' W 076°21'0 0.0
2018-Feb-12 17:26N 36°53' W 076°21'0 0.0
2018-Feb-12 16:56N 36°53' W 076°21'0 0.0
2018-Feb-12 16:26N 36°53' W 076°21'0 0.0
2018-Feb-12 15:56N 36°53' W 076°21'0 0.0
2018-Feb-12 15:17N 36°53' W 076°21'0 0.0
2018-Feb-12 14:56N 36°53' W 076°21'0 0.0
2018-Feb-12 14:26N 36°53' W 076°21'0 0.0
2018-Feb-12 13:59N 36°53' W 076°21'0 0.0
2018-Feb-12 13:26N 36°53' W 076°21'0 0.0
2018-Feb-12 12:56N 36°53' W 076°21'0 0.0
2018-Feb-12 12:26N 36°53' W 076°21'0 0.0
2018-Feb-12 11:56N 36°53' W 076°21'0 0.3
2018-Feb-12 11:30N 36°53' W 076°21'2 3.1
2018-Feb-12 11:00N 36°54' W 076°20'5 8.8
2018-Feb-12 10:29N 36°59' W 076°20'611.7
2018-Feb-12 09:58N 36°60' W 076°12'613.6
2018-Feb-12 09:30N 36°58' W 076°05'611.6
2018-Feb-12 09:00N 36°56' W 075°58'3 6.9
2018-Feb-12 08:30N 36°54' W 075°54'3 6.7
2018-Feb-12 08:00N 36°52' W 075°51'4 6.8
2018-Feb-12 07:21N 36°50' W 075°47'172 6.2
2018-Feb-11 03:47N 39°21' W 074°02'10 7.2
2018-Feb-11 02:22N 39°30' W 073°57'3 7.3
2018-Feb-11 01:59N 39°33' W 073°56'7 6.9
2018-Feb-11 00:58N 39°40' W 073°54'3 6.8
2018-Feb-11 00:29N 39°43' W 073°52'6 7.2
2018-Feb-10 23:43N 39°48' W 073°51'  
Track history (hours):
 
Tides and Currents Weather Stations Pressure Air Temp Water Temp Dewpoint Dewpoint Depression Visibility Wind Speed Wind Dir Waves Ship Positions

Maersk Denver

Owner: MAERSK LINE, LIMITED, NORFOLK, VA. More information available from US FCC via Universal Licensing System and Coast Guard Vessel Documentation Center.

Last reported at 2018-Feb-20 23:26 UTC. Time now 2018-Feb-20 23:55 UTC.
Position N 36°08' W 005°26'.

Length 299 m; draft 13.8 m.

Type: Cargo ship. MMSI: 338418000.

Date/timePositionNaut miles runAvg speedWind from/ knotsBaromVisibWave heightAir tempDewpointWater temp
2018-Feb-20 23:26N 36°08' W 005°26'0 0.0
2018-Feb-20 22:58N 36°08' W 005°26'0 0.0
2018-Feb-20 22:25N 36°08' W 005°26'0 0.0
2018-Feb-20 21:52N 36°08' W 005°26'0 0.0
2018-Feb-20 21:28N 36°08' W 005°26'0 0.0
2018-Feb-20 20:55N 36°08' W 005°26'0 0.0
2018-Feb-20 20:28N 36°08' W 005°26'0 0.0
2018-Feb-20 19:58N 36°08' W 005°26'0 0.0
2018-Feb-20 19:26N 36°08' W 005°26'0 0.0
2018-Feb-20 18:58N 36°08' W 005°26'0 0.0
2018-Feb-20 18:19N 36°08' W 005°26'0 0.0
2018-Feb-20 17:55N 36°08' W 005°26'0 0.0
2018-Feb-20 17:28N 36°08' W 005°26'0 0.0
2018-Feb-20 16:55N 36°08' W 005°26'0 0.0
2018-Feb-20 16:28N 36°08' W 005°26'0 0.0
2018-Feb-20 15:55N 36°08' W 005°26'0 0.0
2018-Feb-20 15:28N 36°08' W 005°26'0 0.0
2018-Feb-20 14:58N 36°08' W 005°26'0 0.0
2018-Feb-20 14:28N 36°08' W 005°26'0 0.0
2018-Feb-20 13:55N 36°08' W 005°26'0 0.0
2018-Feb-20 13:28N 36°08' W 005°26'0 0.0
2018-Feb-20 12:46N 36°08' W 005°26'0 0.0
2018-Feb-20 12:28N 36°08' W 005°26'1 0.9
2018-Feb-20 11:48N 36°09' W 005°26'5 7.0
2018-Feb-20 11:02N 36°04' W 005°23'311.3
2018-Feb-20 10:47N 36°01' W 005°22'3 9.9
2018-Feb-20 10:30N 35°59' W 005°23'29718.5
2018-Feb-19 18:29N 36°54' W 011°26'919.0
2018-Feb-19 18:00N 36°57' W 011°36'1918.8
2018-Feb-19 17:00N 37°03' W 011°59'918.9
2018-Feb-19 16:30N 37°06' W 012°10'1818.7
2018-Feb-19 15:31N 37°12' W 012°32'118.6
2018-Feb-19 15:29N 37°12' W 012°33'2018.7
2018-Feb-19 14:24N 37°18' W 012°57'16019.0
2018-Feb-19 06:00N 38°00' W 016°12'46619.4 050 / 161023.110.8 14.510.7
2018-Feb-18 06:00N 39°48' W 025°54'13021.2 190 / 171024.710.8 16.010.4
2018-Feb-17 23:50N 40°09' W 028°42'11619.8
2018-Feb-17 18:00N 40°24' W 031°12'25120.9 200 / 251024.910.8 19.011.8
2018-Feb-17 06:00N 40°42' W 036°42'   200 / 271023.110.8 17.013.5
2018-Feb-13 15:13N 36°49' W 075°46'3 9.3
2018-Feb-13 14:56N 36°50' W 075°49'4 9.1
2018-Feb-13 14:30N 36°52' W 075°53'5 9.1
2018-Feb-13 14:00N 36°56' W 075°57'5 9.2
2018-Feb-13 13:30N 36°57' W 076°02'611.9
2018-Feb-13 13:00N 36°59' W 076°09'611.7
2018-Feb-13 12:30N 37°00' W 076°16'5 9.7
2018-Feb-13 12:00N 36°57' W 076°20'4 7.5
2018-Feb-13 11:30N 36°53' W 076°20'1 1.5
2018-Feb-13 11:00N 36°53' W 076°21'0 0.0
2018-Feb-13 10:29N 36°53' W 076°21'0 0.0
2018-Feb-13 09:59N 36°53' W 076°21'0 0.0
2018-Feb-13 09:29N 36°53' W 076°21'0 0.0
2018-Feb-13 08:59N 36°53' W 076°21'0 0.0
2018-Feb-13 08:29N 36°53' W 076°21'0 0.0
2018-Feb-13 07:59N 36°53' W 076°21'0 0.0
2018-Feb-13 07:29N 36°53' W 076°21'0 0.0
2018-Feb-13 06:56N 36°53' W 076°21'0 0.0
2018-Feb-13 06:29N 36°53' W 076°21'0 0.0
2018-Feb-13 05:59N 36°53' W 076°21'0 0.0
2018-Feb-13 05:29N 36°53' W 076°21'0 0.0
2018-Feb-13 04:56N 36°53' W 076°21'0 0.0
2018-Feb-13 04:26N 36°53' W 076°21'0 0.0
2018-Feb-13 03:59N 36°53' W 076°21'0 0.0
2018-Feb-13 03:29N 36°53' W 076°21'0 0.0
2018-Feb-13 02:59N 36°53' W 076°21'0 0.0
2018-Feb-13 02:29N 36°53' W 076°21'0 0.0
2018-Feb-13 01:56N 36°53' W 076°21'0 0.0
2018-Feb-13 01:26N 36°53' W 076°21'0 0.0
2018-Feb-13 00:59N 36°53' W 076°21'0 0.0
2018-Feb-13 00:26N 36°53' W 076°21'0 0.0
2018-Feb-12 23:59N 36°53' W 076°21'0 0.0
2018-Feb-12 23:26N 36°53' W 076°21'0 0.0
2018-Feb-12 22:56N 36°53' W 076°21'0 0.0
2018-Feb-12 22:29N 36°53' W 076°21'0 0.0
2018-Feb-12 21:59N 36°53' W 076°21'0 0.0
2018-Feb-12 21:26N 36°53' W 076°21'0 0.0
2018-Feb-12 20:56N 36°53' W 076°21'0 0.0
2018-Feb-12 20:26N 36°53' W 076°21'0 0.0
2018-Feb-12 19:56N 36°53' W 076°21'0 0.0
2018-Feb-12 19:29N 36°53' W 076°21'0 0.0
2018-Feb-12 18:59N 36°53' W 076°21'0 0.0
2018-Feb-12 18:26N 36°53' W 076°21'0 0.0
2018-Feb-12 17:56N 36°53' W 076°21'0 0.0
2018-Feb-12 17:26N 36°53' W 076°21'0 0.0
2018-Feb-12 16:56N 36°53' W 076°21'0 0.0
2018-Feb-12 16:26N 36°53' W 076°21'0 0.0
2018-Feb-12 15:56N 36°53' W 076°21'0 0.0
2018-Feb-12 15:17N 36°53' W 076°21'0 0.0
2018-Feb-12 14:56N 36°53' W 076°21'0 0.0
2018-Feb-12 14:26N 36°53' W 076°21'0 0.0
2018-Feb-12 13:59N 36°53' W 076°21'0 0.0
2018-Feb-12 13:26N 36°53' W 076°21'0 0.0
2018-Feb-12 12:56N 36°53' W 076°21'0 0.0
2018-Feb-12 12:26N 36°53' W 076°21'0 0.0
2018-Feb-12 11:56N 36°53' W 076°21'0 0.3
2018-Feb-12 11:30N 36°53' W 076°21'2 3.1
2018-Feb-12 11:00N 36°54' W 076°20'5 8.8
2018-Feb-12 10:29N 36°59' W 076°20'611.7
2018-Feb-12 09:58N 36°60' W 076°12'613.6
2018-Feb-12 09:30N 36°58' W 076°05'611.6
2018-Feb-12 09:00N 36°56' W 075°58'3 6.9
2018-Feb-12 08:30N 36°54' W 075°54'3 6.7
2018-Feb-12 08:00N 36°52' W 075°51'4 6.8
2018-Feb-12 07:21N 36°50' W 075°47'172 6.2
2018-Feb-11 03:47N 39°21' W 074°02'10 7.2
2018-Feb-11 02:22N 39°30' W 073°57'3 7.3
2018-Feb-11 01:59N 39°33' W 073°56'7 6.9
2018-Feb-11 00:58N 39°40' W 073°54'3 6.8
2018-Feb-11 00:29N 39°43' W 073°52'6 7.2
2018-Feb-10 23:43N 39°48' W 073°51'  

Dump ship's entire track history